Pertusola — IBER — position and weather

sailwx.info

Track history (hours):
 
Tides and Currents Weather Stations Pressure Air Temp Water Temp Dewpoint Dewpoint Depression Visibility Wind Speed Wind Dir Waves Ship Positions

Pertusola

Last reported at 2016-May-01 13:27 UTC. Time now 2016-May-03 03:04 UTC.
Position N 49°46' W 003°38'.

Length 145 m; draft 7.8 m.

Type: Ship (hazmat cat A). MMSI: 247399000.

Date/timePositionNaut miles runAvg speedWind from/ knotsBaromVisibWave heightAir tempDewpointWater temp
2016-May-01 13:27N 49°46' W 003°38'1112.4
2016-May-01 12:33N 49°51' W 003°23'1312.7
2016-May-01 11:32N 49°58' W 003°06'1312.7
2016-May-01 10:33N 50°03' W 002°48'8714.3
2016-May-01 04:28N 50°26' W 000°36'1212.9
2016-May-01 03:31N 50°28' W 000°18'1212.7
2016-May-01 02:33N 50°33' E 000°00'1312.8
2016-May-01 01:33N 50°36' E 000°20'4214.0
2016-Apr-30 22:33N 50°59' E 001°15'1414.2
2016-Apr-30 21:33N 51°08' E 001°33'1313.3
2016-Apr-30 20:33N 51°17' E 001°49'1211.7
2016-Apr-30 19:33N 51°25' E 002°02'1312.6
2016-Apr-30 18:33N 51°21' E 002°22'1312.7
2016-Apr-30 17:33N 51°24' E 002°42'9 9.2
2016-Apr-30 16:34N 51°25' E 002°56'1212.0
2016-Apr-30 15:33N 51°25' E 003°16'1212.3
2016-Apr-30 14:34N 51°26' E 003°35'9 9.0
2016-Apr-30 13:34N 51°21' E 003°48'2 1.8
2016-Apr-30 12:33N 51°20' E 003°49'3 2.6
2016-Apr-30 11:33N 51°17' E 003°50'1 0.6
2016-Apr-30 10:32N 51°17' E 003°51'0 0.0
2016-Apr-30 09:29N 51°17' E 003°51'0 0.0
2016-Apr-30 08:32N 51°17' E 003°51'0 0.0
2016-Apr-30 07:29N 51°17' E 003°51'0 0.0
2016-Apr-30 06:32N 51°17' E 003°51'0 0.0
2016-Apr-30 05:32N 51°17' E 003°51'0 0.0
2016-Apr-30 04:32N 51°17' E 003°51'0 0.0
2016-Apr-30 03:32N 51°17' E 003°51'0 0.0
2016-Apr-30 02:32N 51°17' E 003°51'0 0.0
2016-Apr-30 01:32N 51°17' E 003°51'0 0.0
2016-Apr-30 00:32N 51°17' E 003°51'0 0.0
2016-Apr-29 23:32N 51°17' E 003°51'0 0.0
2016-Apr-29 22:32N 51°17' E 003°51'0 0.0
2016-Apr-29 21:32N 51°17' E 003°51'0 0.0
2016-Apr-29 20:32N 51°17' E 003°51'0 0.0
2016-Apr-29 19:32N 51°17' E 003°51'0 0.0
2016-Apr-29 18:32N 51°17' E 003°51'0 0.0
2016-Apr-29 17:32N 51°17' E 003°51'0 0.0
2016-Apr-29 16:32N 51°17' E 003°51'0 0.0
2016-Apr-29 15:32N 51°17' E 003°51'0 0.0
2016-Apr-29 14:32N 51°17' E 003°51'0 0.0
2016-Apr-29 13:32N 51°17' E 003°51'0 0.0
2016-Apr-29 12:32N 51°17' E 003°51'0 0.0
2016-Apr-29 11:32N 51°17' E 003°51'0 0.1
2016-Apr-29 10:33N 51°17' E 003°50'3 3.0
2016-Apr-29 09:33N 51°20' E 003°49'1 0.9
2016-Apr-29 08:33N 51°20' E 003°49'4 4.3
2016-Apr-29 07:33N 51°23' E 003°43'6 5.7
2016-Apr-29 06:33N 51°25' E 003°35'1212.2
2016-Apr-29 05:33N 51°25' E 003°15'1514.9
2016-Apr-29 04:33N 51°22' E 002°52'1110.9
2016-Apr-29 03:32N 51°21' E 002°34'1 1.0
2016-Apr-29 02:23N 51°20' E 002°33'2 2.1
2016-Apr-29 01:24N 51°22' E 002°31'6 7.7
2016-Apr-29 00:34N 51°20' E 002°21'1312.6
2016-Apr-28 23:34N 51°23' E 002°01'1212.2
2016-Apr-28 22:33N 51°34' E 002°08'41313.6
2016-Apr-27 16:08N 57°42' E 007°30'3714.3
2016-Apr-27 13:33N 57°58' E 008°33'1514.9
2016-Apr-27 12:33N 58°07' E 008°55'1615.2
2016-Apr-27 11:30N 58°19' E 009°15'2914.5
2016-Apr-27 09:31N 58°44' E 009°42'1314.0
2016-Apr-27 08:33N 58°57' E 009°46'8 7.5
2016-Apr-27 07:26N 59°05' E 009°38'2 0.1
2016-Apr-26 12:27N 59°07' E 009°38'5 5.1
2016-Apr-26 11:33N 59°03' E 009°42'10 9.5
2016-Apr-26 10:33N 58°54' E 009°48'5112.1
2016-Apr-26 06:20N 58°07' E 009°07'1113.6
2016-Apr-26 05:33N 57°59' E 008°54'21713.5
2016-Apr-25 13:28N 54°54' E 005°30'1313.8
2016-Apr-25 12:33N 54°45' E 005°16'21312.3
2016-Apr-24 19:16N 51°39' E 002°23'913.0
2016-Apr-24 18:33N 51°32' E 002°14'1413.8
2016-Apr-24 17:34N 51°21' E 001°59'1414.2
2016-Apr-24 16:33N 51°10' E 001°45'1514.5
2016-Apr-24 15:33N 50°59' E 001°30'5413.4
2016-Apr-24 11:33N 50°25' E 000°25'1515.3
2016-Apr-24 10:33N 50°21' E 000°02'1615.9
2016-Apr-24 09:32N 50°16' W 000°23'9513.6
2016-Apr-24 02:33N 49°50' W 002°45'1111.4
2016-Apr-24 01:33N 49°45' W 003°01'1212.1
2016-Apr-24 00:33N 49°40' W 003°17'8413.4
2016-Apr-23 18:17N 48°58' W 005°09'  
Track history (hours):
 
Tides and Currents Weather Stations Pressure Air Temp Water Temp Dewpoint Dewpoint Depression Visibility Wind Speed Wind Dir Waves Ship Positions

Pertusola

Last reported at 2016-May-01 13:27 UTC. Time now 2016-May-03 03:04 UTC.
Position N 49°46' W 003°38'.

Length 145 m; draft 7.8 m.

Type: Ship (hazmat cat A). MMSI: 247399000.

Date/timePositionNaut miles runAvg speedWind from/ knotsBaromVisibWave heightAir tempDewpointWater temp
2016-May-01 13:27N 49°46' W 003°38'1112.4
2016-May-01 12:33N 49°51' W 003°23'1312.7
2016-May-01 11:32N 49°58' W 003°06'1312.7
2016-May-01 10:33N 50°03' W 002°48'8714.3
2016-May-01 04:28N 50°26' W 000°36'1212.9
2016-May-01 03:31N 50°28' W 000°18'1212.7
2016-May-01 02:33N 50°33' E 000°00'1312.8
2016-May-01 01:33N 50°36' E 000°20'4214.0
2016-Apr-30 22:33N 50°59' E 001°15'1414.2
2016-Apr-30 21:33N 51°08' E 001°33'1313.3
2016-Apr-30 20:33N 51°17' E 001°49'1211.7
2016-Apr-30 19:33N 51°25' E 002°02'1312.6
2016-Apr-30 18:33N 51°21' E 002°22'1312.7
2016-Apr-30 17:33N 51°24' E 002°42'9 9.2
2016-Apr-30 16:34N 51°25' E 002°56'1212.0
2016-Apr-30 15:33N 51°25' E 003°16'1212.3
2016-Apr-30 14:34N 51°26' E 003°35'9 9.0
2016-Apr-30 13:34N 51°21' E 003°48'2 1.8
2016-Apr-30 12:33N 51°20' E 003°49'3 2.6
2016-Apr-30 11:33N 51°17' E 003°50'1 0.6
2016-Apr-30 10:32N 51°17' E 003°51'0 0.0
2016-Apr-30 09:29N 51°17' E 003°51'0 0.0
2016-Apr-30 08:32N 51°17' E 003°51'0 0.0
2016-Apr-30 07:29N 51°17' E 003°51'0 0.0
2016-Apr-30 06:32N 51°17' E 003°51'0 0.0
2016-Apr-30 05:32N 51°17' E 003°51'0 0.0
2016-Apr-30 04:32N 51°17' E 003°51'0 0.0
2016-Apr-30 03:32N 51°17' E 003°51'0 0.0
2016-Apr-30 02:32N 51°17' E 003°51'0 0.0
2016-Apr-30 01:32N 51°17' E 003°51'0 0.0
2016-Apr-30 00:32N 51°17' E 003°51'0 0.0
2016-Apr-29 23:32N 51°17' E 003°51'0 0.0
2016-Apr-29 22:32N 51°17' E 003°51'0 0.0
2016-Apr-29 21:32N 51°17' E 003°51'0 0.0
2016-Apr-29 20:32N 51°17' E 003°51'0 0.0
2016-Apr-29 19:32N 51°17' E 003°51'0 0.0
2016-Apr-29 18:32N 51°17' E 003°51'0 0.0
2016-Apr-29 17:32N 51°17' E 003°51'0 0.0
2016-Apr-29 16:32N 51°17' E 003°51'0 0.0
2016-Apr-29 15:32N 51°17' E 003°51'0 0.0
2016-Apr-29 14:32N 51°17' E 003°51'0 0.0
2016-Apr-29 13:32N 51°17' E 003°51'0 0.0
2016-Apr-29 12:32N 51°17' E 003°51'0 0.0
2016-Apr-29 11:32N 51°17' E 003°51'0 0.1
2016-Apr-29 10:33N 51°17' E 003°50'3 3.0
2016-Apr-29 09:33N 51°20' E 003°49'1 0.9
2016-Apr-29 08:33N 51°20' E 003°49'4 4.3
2016-Apr-29 07:33N 51°23' E 003°43'6 5.7
2016-Apr-29 06:33N 51°25' E 003°35'1212.2
2016-Apr-29 05:33N 51°25' E 003°15'1514.9
2016-Apr-29 04:33N 51°22' E 002°52'1110.9
2016-Apr-29 03:32N 51°21' E 002°34'1 1.0
2016-Apr-29 02:23N 51°20' E 002°33'2 2.1
2016-Apr-29 01:24N 51°22' E 002°31'6 7.7
2016-Apr-29 00:34N 51°20' E 002°21'1312.6
2016-Apr-28 23:34N 51°23' E 002°01'1212.2
2016-Apr-28 22:33N 51°34' E 002°08'41313.6
2016-Apr-27 16:08N 57°42' E 007°30'3714.3
2016-Apr-27 13:33N 57°58' E 008°33'1514.9
2016-Apr-27 12:33N 58°07' E 008°55'1615.2
2016-Apr-27 11:30N 58°19' E 009°15'2914.5
2016-Apr-27 09:31N 58°44' E 009°42'1314.0
2016-Apr-27 08:33N 58°57' E 009°46'8 7.5
2016-Apr-27 07:26N 59°05' E 009°38'2 0.1
2016-Apr-26 12:27N 59°07' E 009°38'5 5.1
2016-Apr-26 11:33N 59°03' E 009°42'10 9.5
2016-Apr-26 10:33N 58°54' E 009°48'5112.1
2016-Apr-26 06:20N 58°07' E 009°07'1113.6
2016-Apr-26 05:33N 57°59' E 008°54'21713.5
2016-Apr-25 13:28N 54°54' E 005°30'1313.8
2016-Apr-25 12:33N 54°45' E 005°16'21312.3
2016-Apr-24 19:16N 51°39' E 002°23'913.0
2016-Apr-24 18:33N 51°32' E 002°14'1413.8
2016-Apr-24 17:34N 51°21' E 001°59'1414.2
2016-Apr-24 16:33N 51°10' E 001°45'1514.5
2016-Apr-24 15:33N 50°59' E 001°30'5413.4
2016-Apr-24 11:33N 50°25' E 000°25'1515.3
2016-Apr-24 10:33N 50°21' E 000°02'1615.9
2016-Apr-24 09:32N 50°16' W 000°23'9513.6
2016-Apr-24 02:33N 49°50' W 002°45'1111.4
2016-Apr-24 01:33N 49°45' W 003°01'1212.1
2016-Apr-24 00:33N 49°40' W 003°17'8413.4
2016-Apr-23 18:17N 48°58' W 005°09'  

Dump ship's entire track history